createdAt,value
2022-10-20T00:02:25.622Z,101425.84
2022-10-20T00:04:57.309Z,101418.94
2022-10-20T00:07:28.222Z,101418.13
2022-10-20T00:10:01.542Z,101415.69
2022-10-20T00:12:29.427Z,101415.69
2022-10-20T00:14:57.211Z,101416.50
2022-10-20T00:17:30.555Z,101427.38
2022-10-20T00:20:00.699Z,101429.41
2022-10-20T00:22:31.377Z,101431.44
2022-10-20T00:24:59.378Z,101430.63
2022-10-20T00:27:32.834Z,101433.81
2022-10-20T00:30:00.543Z,101436.72
2022-10-20T00:32:29.843Z,101429.03
2022-10-20T00:34:57.865Z,101425.75
2022-10-20T00:37:25.551Z,101437.13
2022-10-20T00:39:55.702Z,101430.63
2022-10-20T00:42:26.280Z,101424.50
2022-10-20T00:45:00.692Z,101416.44
2022-10-20T00:47:28.336Z,101416.84
2022-10-20T00:49:59.594Z,101415.66
2022-10-20T00:52:27.637Z,101422.56
2022-10-20T00:55:01.805Z,101414.00
2022-10-20T00:57:32.015Z,101413.63
2022-10-20T00:59:59.705Z,101423.25
2022-10-20T01:02:35.756Z,101418.81
2022-10-20T01:05:07.636Z,101412.38
2022-10-20T01:07:35.749Z,101417.28
2022-10-20T01:10:10.755Z,101409.28
2022-10-20T01:12:50.518Z,101409.81
2022-10-20T01:15:35.117Z,101402.16
2022-10-20T01:18:20.870Z,101411.13
2022-10-20T01:21:04.098Z,101398.22
2022-10-20T01:24:25.930Z,101394.63
2022-10-20T01:27:22.000Z,101407.59
2022-10-20T01:30:03.615Z,101415.28
2022-10-20T01:32:57.099Z,101416.06
2022-10-20T01:35:45.476Z,101414.53
2022-10-20T01:38:41.324Z,101414.03
2022-10-20T01:41:12.354Z,101411.50
2022-10-20T01:43:47.452Z,101404.59
2022-10-20T01:46:20.299Z,101399.34
2022-10-20T01:48:49.019Z,101403.28
2022-10-20T01:51:19.138Z,101399.28
2022-10-20T01:53:46.927Z,101397.53
2022-10-20T01:56:28.469Z,101380.16
2022-10-20T01:59:04.773Z,101391.81
2022-10-20T02:01:44.726Z,101393.88
2022-10-20T02:04:16.709Z,101392.63
2022-10-20T02:07:09.299Z,101397.91
2022-10-20T02:09:43.584Z,101395.06
2022-10-20T02:12:25.557Z,101396.25
2022-10-20T02:14:58.668Z,101390.91
2022-10-20T02:17:30.231Z,101390.88
2022-10-20T02:19:58.764Z,101396.91
2022-10-20T02:22:30.642Z,101389.22
2022-10-20T02:25:04.654Z,101399.78
2022-10-20T02:27:39.140Z,101398.97
2022-10-20T02:30:12.958Z,101402.66
2022-10-20T02:32:49.412Z,101396.56
2022-10-20T02:35:26.382Z,101393.72
2022-10-20T02:37:54.409Z,101389.66
2022-10-20T02:40:24.940Z,101379.09
2022-10-20T02:42:58.192Z,101383.97
2022-10-20T02:45:31.340Z,101381.56
2022-10-20T02:48:03.303Z,101386.41
2022-10-20T02:50:34.615Z,101389.22
2022-10-20T02:53:08.292Z,101400.16
2022-10-20T02:55:38.305Z,101396.47
2022-10-20T02:58:06.524Z,101400.94
2022-10-20T03:00:36.885Z,101395.66
2022-10-20T03:03:04.609Z,101398.50
2022-10-20T03:05:32.363Z,101406.97
2022-10-20T03:08:07.018Z,101408.16
2022-10-20T03:10:37.646Z,101412.56
2022-10-20T03:13:10.404Z,101432.78
2022-10-20T03:15:40.320Z,101418.28
2022-10-20T03:18:10.328Z,101418.63
2022-10-20T03:20:39.164Z,101420.56
2022-10-20T03:23:06.955Z,101408.88
2022-10-20T03:25:34.664Z,101407.28
2022-10-20T03:28:02.451Z,101427.88
2022-10-20T03:30:30.831Z,101418.19
2022-10-20T03:32:58.708Z,101424.63
2022-10-20T03:35:31.334Z,101419.72
2022-10-20T03:37:59.276Z,101417.38
2022-10-20T03:40:29.532Z,101422.22
2022-10-20T03:42:57.350Z,101425.44
2022-10-20T03:45:30.389Z,101421.34
2022-10-20T03:48:02.709Z,101421.31
2022-10-20T03:50:33.772Z,101431.00
2022-10-20T03:53:13.723Z,101431.78
2022-10-20T03:55:45.159Z,101435.81
2022-10-20T03:58:15.265Z,101439.50
2022-10-20T04:00:43.156Z,101440.69
2022-10-20T04:03:13.844Z,101439.94
2022-10-20T04:05:41.753Z,101444.38
2022-10-20T04:08:12.169Z,101441.56
2022-10-20T04:10:46.145Z,101433.06
2022-10-20T04:13:16.252Z,101439.09
2022-10-20T04:15:51.819Z,101445.16
2022-10-20T04:18:19.488Z,101444.75
2022-10-20T04:20:52.979Z,101449.56
2022-10-20T04:23:20.961Z,101438.63
2022-10-20T04:25:49.908Z,101439.03
2022-10-20T04:28:26.134Z,101441.91
2022-10-20T04:30:54.739Z,101444.72
2022-10-20T04:33:22.306Z,101443.53
2022-10-20T04:36:04.238Z,101445.91
2022-10-20T04:38:38.327Z,101444.25
2022-10-20T04:41:06.478Z,101447.09
2022-10-20T04:43:35.342Z,101446.25
2022-10-20T04:46:08.665Z,101441.03
2022-10-20T04:48:42.585Z,101446.25
2022-10-20T04:51:11.774Z,101447.13
2022-10-20T04:53:45.229Z,101443.53
2022-10-20T04:56:19.344Z,101451.97
2022-10-20T04:58:54.307Z,101447.13
2022-10-20T05:01:24.208Z,101449.94
2022-10-20T05:03:52.376Z,101446.25
2022-10-20T05:06:30.461Z,101448.69
2022-10-20T05:09:03.784Z,101459.19
2022-10-20T05:11:40.862Z,101450.28
2022-10-20T05:14:12.275Z,101455.53
2022-10-20T05:16:40.451Z,101449.41
2022-10-20T05:19:14.774Z,101451.44
2022-10-20T05:21:52.776Z,101455.94
2022-10-20T05:24:30.496Z,101451.91
2022-10-20T05:27:35.176Z,101451.84
2022-10-20T05:30:06.720Z,101455.53
2022-10-20T05:32:35.071Z,101456.34
2022-10-20T05:35:07.103Z,101450.66
2022-10-20T05:37:41.520Z,101461.59
2022-10-20T05:40:14.034Z,101447.44
2022-10-20T05:42:47.804Z,101452.75
2022-10-20T05:45:18.269Z,101451.91
2022-10-20T05:47:54.997Z,101460.78
2022-10-20T05:50:25.735Z,101463.22
2022-10-20T05:52:59.647Z,101466.88
2022-10-20T05:55:32.138Z,101461.06
2022-10-20T05:57:59.838Z,101464.88
2022-10-20T06:00:31.441Z,101469.94
2022-10-20T06:03:00.656Z,101467.59
2022-10-20T06:05:32.250Z,101471.25
2022-10-20T06:08:00.471Z,101470.50
2022-10-20T06:10:31.136Z,101465.88
2022-10-20T06:12:59.153Z,101477.22
2022-10-20T06:15:30.171Z,101476.50
2022-10-20T06:17:57.841Z,101483.81
2022-10-20T06:20:27.943Z,101493.47
2022-10-20T06:23:00.469Z,101496.81
2022-10-20T06:25:28.309Z,101489.09
2022-10-20T06:27:55.642Z,101477.31
2022-10-20T06:30:25.366Z,101491.13
2022-10-20T06:32:58.669Z,101485.03
2022-10-20T06:35:26.188Z,101486.25
2022-10-20T06:37:53.489Z,101489.91
2022-10-20T06:40:25.414Z,101481.75
2022-10-20T06:45:31.118Z,101495.09
2022-10-20T06:47:58.536Z,101498.84
2022-10-20T06:50:28.539Z,101498.88
2022-10-20T06:53:02.638Z,101506.31
2022-10-20T06:55:33.094Z,101518.16
2022-10-20T06:58:08.231Z,101510.97
2022-10-20T07:00:42.612Z,101514.22
2022-10-20T07:03:15.348Z,101524.88
2022-10-20T07:05:45.131Z,101521.63
2022-10-20T07:08:15.552Z,101511.47
2022-10-20T07:10:48.792Z,101519.59
2022-10-20T07:13:18.489Z,101516.75
2022-10-20T07:15:55.926Z,101509.44
2022-10-20T07:18:27.557Z,101515.13
2022-10-20T07:21:07.985Z,101516.34
2022-10-20T07:23:36.613Z,101518.34
2022-10-20T07:26:17.710Z,101498.81
2022-10-20T07:28:54.809Z,101505.34
2022-10-20T07:31:38.047Z,101507.00
2022-10-20T07:34:31.267Z,101503.34
2022-10-20T07:37:01.678Z,101508.63
2022-10-20T07:39:35.044Z,101509.41
2022-10-20T07:42:04.903Z,101506.97
2022-10-20T07:44:38.856Z,101514.59
2022-10-20T07:47:09.334Z,101510.41
2022-10-20T07:49:44.240Z,101512.00
2022-10-20T07:52:16.712Z,101511.59
2022-10-20T07:54:47.575Z,101516.25
2022-10-20T07:57:18.586Z,101521.63
2022-10-20T07:59:49.325Z,101522.69
2022-10-20T08:02:21.069Z,101525.78
2022-10-20T08:04:49.232Z,101524.03
2022-10-20T08:07:20.731Z,101530.09
2022-10-20T08:09:51.982Z,101538.09
2022-10-20T08:12:23.075Z,101537.00
2022-10-20T08:14:53.950Z,101538.41
2022-10-20T08:17:32.677Z,101545.75
2022-10-20T08:22:55.685Z,101539.56
2022-10-20T08:25:26.800Z,101532.66
2022-10-20T08:30:33.778Z,101523.19
2022-10-20T08:33:11.124Z,101525.94
2022-10-20T08:35:49.263Z,101531.53
2022-10-20T08:38:17.052Z,101536.38
2022-10-20T08:40:53.205Z,101537.16
2022-10-20T08:43:23.457Z,101542.00
2022-10-20T08:45:57.127Z,101544.41
2022-10-20T08:48:33.898Z,101545.22
2022-10-20T08:51:16.724Z,101552.50
2022-10-20T08:53:49.608Z,101550.09
2022-10-20T08:56:23.307Z,101552.47
2022-10-20T08:58:59.613Z,101560.19
2022-10-20T09:01:35.457Z,101547.66
2022-10-20T09:04:30.211Z,101557.28
2022-10-20T09:07:01.860Z,101558.13
2022-10-20T09:09:34.121Z,101559.28
2022-10-20T09:12:08.378Z,101570.66
2022-10-20T09:14:40.649Z,101566.97
2022-10-20T09:17:19.059Z,101563.66
2022-10-20T09:19:54.660Z,101561.25
2022-10-20T09:22:34.904Z,101564.09
2022-10-20T09:25:22.366Z,101559.69
2022-10-20T09:28:01.461Z,101566.69
2022-10-20T09:30:29.207Z,101560.19
2022-10-20T09:33:29.153Z,101559.78
2022-10-20T09:36:09.206Z,101551.63
2022-10-20T09:38:47.917Z,101552.03
2022-10-20T09:41:23.829Z,101553.25
2022-10-20T09:44:00.988Z,101555.31
2022-10-20T09:46:37.620Z,101562.16
2022-10-20T09:49:10.744Z,101564.56
2022-10-20T09:51:38.807Z,101558.91
2022-10-20T09:54:17.009Z,101547.63
2022-10-20T09:56:50.722Z,101552.56
2022-10-20T09:59:40.495Z,101542.38
2022-10-20T10:02:20.161Z,101538.34
2022-10-20T10:05:14.152Z,101542.00
2022-10-20T10:07:45.224Z,101543.25
2022-10-20T10:10:27.793Z,101551.38
2022-10-20T10:13:04.186Z,101545.19
2022-10-20T10:15:39.218Z,101536.41
2022-10-20T10:18:23.217Z,101533.97
2022-10-20T10:21:06.472Z,101534.78
2022-10-20T10:23:36.918Z,101546.47
2022-10-20T10:26:32.974Z,101531.91
2022-10-20T10:29:04.118Z,101540.00
2022-10-20T10:31:33.599Z,101525.84
2022-10-20T10:34:13.683Z,101530.50
2022-10-20T10:36:41.266Z,101531.59
2022-10-20T10:39:14.834Z,101530.38
2022-10-20T10:42:00.914Z,101532.13
2022-10-20T10:44:39.271Z,101531.34
2022-10-20T10:47:49.240Z,101531.66
2022-10-20T10:50:29.791Z,101526.09
2022-10-20T10:53:16.203Z,101515.69
2022-10-20T10:59:05.344Z,101502.38
2022-10-20T11:02:11.672Z,101505.63
2022-10-20T11:05:00.117Z,101495.50
2022-10-20T11:08:02.206Z,101490.91
2022-10-20T11:10:56.508Z,101493.81
2022-10-20T11:13:47.868Z,101479.56
2022-10-20T11:16:36.917Z,101482.31
2022-10-20T11:19:33.335Z,101478.31
2022-10-20T11:22:31.334Z,101476.78
2022-10-20T11:25:11.124Z,101475.16
2022-10-20T11:27:45.238Z,101472.34
2022-10-20T11:30:18.423Z,101473.41
2022-10-20T11:33:21.312Z,101465.31
2022-10-20T11:35:56.948Z,101471.06
2022-10-20T11:38:50.062Z,101459.78
2022-10-20T11:41:49.971Z,101463.31
2022-10-20T11:44:41.186Z,101457.16
2022-10-20T11:47:18.923Z,101453.91
2022-10-20T11:49:52.337Z,101446.22
2022-10-20T11:52:45.188Z,101445.78
2022-10-20T11:55:26.456Z,101437.75
2022-10-20T11:58:12.807Z,101435.44
2022-10-20T12:01:00.045Z,101450.09
2022-10-20T12:04:02.590Z,101438.59
2022-10-20T12:06:54.141Z,101421.53
2022-10-20T12:09:39.903Z,101425.78
2022-10-20T12:12:42.162Z,101426.22
2022-10-20T12:15:25.466Z,101408.22
2022-10-20T12:18:33.942Z,101406.78
2022-10-20T12:21:09.563Z,101400.97
2022-10-20T12:23:46.110Z,101396.88
2022-10-20T12:26:38.752Z,101392.09
2022-10-20T12:29:30.454Z,101386.00
2022-10-20T12:32:26.091Z,101379.97
2022-10-20T12:35:00.414Z,101376.31
2022-10-20T12:37:42.145Z,101370.59
2022-10-20T12:40:12.737Z,101375.16
2022-10-20T12:42:47.560Z,101364.94
2022-10-20T12:45:24.192Z,101375.13
2022-10-20T12:48:01.231Z,101378.03
2022-10-20T12:50:39.435Z,101373.44
2022-10-20T12:53:22.979Z,101373.84
2022-10-20T12:56:04.879Z,101364.97
2022-10-20T12:58:56.589Z,101366.63
2022-10-20T13:01:29.168Z,101358.47
2022-10-20T13:04:01.728Z,101354.53
2022-10-20T13:06:35.485Z,101352.16
2022-10-20T13:09:11.710Z,101355.41
2022-10-20T13:11:56.112Z,101350.94
2022-10-20T13:15:06.957Z,101349.69
2022-10-20T13:18:01.850Z,101356.59
2022-10-20T13:20:57.324Z,101352.16
2022-10-20T13:23:40.009Z,101357.03
2022-10-20T13:26:20.271Z,101352.97
2022-10-20T13:28:54.918Z,101350.53
2022-10-20T13:31:53.358Z,101353.81
2022-10-20T13:34:39.428Z,101354.59
2022-10-20T13:37:37.120Z,101359.78
2022-10-20T13:40:24.148Z,101348.06
2022-10-20T13:43:22.291Z,101345.25
2022-10-20T13:46:01.116Z,101355.38
2022-10-20T13:48:44.391Z,101351.38
2022-10-20T13:51:21.546Z,101348.53
2022-10-20T13:53:59.737Z,101354.59
2022-10-20T13:56:43.036Z,101357.03
2022-10-20T14:02:03.898Z,101355.38
2022-10-20T14:04:37.442Z,101351.75
2022-10-20T14:07:13.352Z,101353.78
2022-10-20T14:09:51.439Z,101353.78
2022-10-20T14:12:31.440Z,101352.91
2022-10-20T14:15:08.699Z,101354.09
2022-10-20T14:17:44.484Z,101353.22
2022-10-20T14:20:20.739Z,101352.00
2022-10-20T14:22:54.458Z,101352.50
2022-10-20T14:25:30.723Z,101353.25
2022-10-20T14:28:05.137Z,101344.81
2022-10-20T14:30:41.099Z,101347.50
2022-10-20T14:33:20.714Z,101350.00
2022-10-20T14:35:54.841Z,101356.25
2022-10-20T14:38:44.553Z,101354.69
2022-10-20T14:41:26.483Z,101359.13
2022-10-20T14:44:06.124Z,101350.94
2022-10-20T14:46:41.810Z,101363.53
2022-10-20T14:49:19.372Z,101355.16
2022-10-20T14:52:21.745Z,101355.91
2022-10-20T14:54:52.588Z,101342.47
2022-10-20T14:57:23.301Z,101351.34
2022-10-20T15:00:03.541Z,101339.22
2022-10-20T15:02:47.781Z,101345.53
2022-10-20T15:05:44.591Z,101344.53
2022-10-20T15:08:26.510Z,101341.38
2022-10-20T15:10:58.697Z,101339.63
2022-10-20T15:13:32.786Z,101340.69
2022-10-20T15:16:08.192Z,101346.16
2022-10-20T15:18:39.248Z,101333.38
2022-10-20T15:21:12.015Z,101335.00
2022-10-20T15:23:42.536Z,101331.63
2022-10-20T15:26:14.316Z,101330.41
2022-10-20T15:28:52.715Z,101327.47
2022-10-20T15:31:25.733Z,101328.72
2022-10-20T15:33:57.198Z,101326.50
2022-10-20T15:36:29.795Z,101325.78
2022-10-20T15:38:57.902Z,101325.50
2022-10-20T15:41:34.656Z,101329.19
2022-10-20T15:44:19.727Z,101337.91
2022-10-20T15:46:50.703Z,101325.81
2022-10-20T15:49:34.273Z,101326.66
2022-10-20T15:52:06.129Z,101322.16
2022-10-20T15:54:42.014Z,101316.09
2022-10-20T15:57:15.363Z,101319.34
2022-10-20T15:59:50.134Z,101310.00
2022-10-20T16:02:21.290Z,101310.00
2022-10-20T16:04:52.667Z,101317.53
2022-10-20T16:07:21.551Z,101308.22
2022-10-20T16:09:49.968Z,101306.94
2022-10-20T16:12:21.024Z,101313.47
2022-10-20T16:14:54.447Z,101314.38
2022-10-20T16:17:28.548Z,101316.25
2022-10-20T16:19:59.684Z,101324.00
2022-10-20T16:22:30.278Z,101324.53
2022-10-20T16:25:01.514Z,101338.31
2022-10-20T16:27:30.920Z,101333.72
2022-10-20T16:30:03.729Z,101326.69
2022-10-20T16:32:35.461Z,101321.72
2022-10-20T16:35:07.450Z,101319.38
2022-10-20T16:37:41.113Z,101319.78
2022-10-20T16:40:14.366Z,101329.91
2022-10-20T16:42:50.753Z,101321.38
2022-10-20T16:45:18.710Z,101326.63
2022-10-20T16:47:48.902Z,101325.78
2022-10-20T16:50:16.968Z,101324.53
2022-10-20T16:52:50.137Z,101321.28
2022-10-20T16:55:22.371Z,101324.94
2022-10-20T16:57:55.975Z,101324.03
2022-10-20T17:00:27.155Z,101332.53
2022-10-20T17:02:57.789Z,101326.38
2022-10-20T17:05:27.583Z,101328.00
2022-10-20T17:07:58.575Z,101329.22
2022-10-20T17:10:30.761Z,101332.84
2022-10-20T17:13:01.807Z,101323.91
2022-10-20T17:15:35.492Z,101327.94
2022-10-20T17:18:03.484Z,101336.03
2022-10-20T17:20:39.777Z,101340.47
2022-10-20T17:23:07.607Z,101340.47
2022-10-20T17:25:41.598Z,101343.69
2022-10-20T17:28:12.009Z,101333.53
2022-10-20T17:30:46.531Z,101334.72
2022-10-20T17:33:14.232Z,101337.94
2022-10-20T17:35:47.689Z,101340.81
2022-10-20T17:38:19.927Z,101333.09
2022-10-20T17:40:50.142Z,101326.59
2022-10-20T17:43:19.240Z,101321.75
2022-10-20T17:46:08.147Z,101321.75
2022-10-20T17:48:36.974Z,101317.25
2022-10-20T17:51:10.654Z,101327.38
2022-10-20T17:53:41.051Z,101330.94
2022-10-20T17:56:13.641Z,101328.94
2022-10-20T17:58:46.238Z,101327.28
2022-10-20T18:01:17.922Z,101332.13
2022-10-20T18:03:46.563Z,101330.09
2022-10-20T18:06:25.664Z,101333.34
2022-10-20T18:08:58.290Z,101337.78
2022-10-20T18:11:33.334Z,101343.91
2022-10-20T18:14:01.264Z,101340.63
2022-10-20T18:16:33.961Z,101334.19
2022-10-20T18:19:04.425Z,101344.28
2022-10-20T18:21:37.504Z,101344.72
2022-10-20T18:24:07.235Z,101347.13
2022-10-20T18:26:36.903Z,101354.44
2022-10-20T18:29:06.555Z,101354.06
2022-10-20T18:31:36.165Z,101347.66
2022-10-20T18:34:07.841Z,101349.66
2022-10-20T18:36:40.375Z,101356.88
2022-10-20T18:39:13.142Z,101362.13
2022-10-20T18:41:43.147Z,101348.03
2022-10-20T18:44:16.680Z,101349.59
2022-10-20T18:46:44.365Z,101358.50
2022-10-20T18:49:16.677Z,101351.59
2022-10-20T18:52:03.111Z,101356.88
2022-10-20T18:54:33.323Z,101350.38
2022-10-20T18:57:00.985Z,101353.25
2022-10-20T18:59:30.978Z,101348.78
2022-10-20T19:01:58.894Z,101352.41
2022-10-20T19:04:28.813Z,101344.69
2022-10-20T19:06:56.517Z,101336.59
2022-10-20T19:09:26.413Z,101335.41
2022-10-20T19:11:54.303Z,101348.69
2022-10-20T19:14:22.735Z,101335.34
2022-10-20T19:16:53.404Z,101337.00
2022-10-20T19:19:23.297Z,101325.63
2022-10-20T19:21:53.394Z,101323.59
2022-10-20T19:24:23.307Z,101324.81
2022-10-20T19:27:24.514Z,101319.91
2022-10-20T19:29:44.921Z,101331.66
2022-10-20T19:32:12.413Z,101327.59
2022-10-20T19:34:41.605Z,101323.94
2022-10-20T19:37:09.905Z,101323.53
2022-10-20T19:39:42.328Z,101330.44
2022-10-20T19:42:10.854Z,101336.50
2022-10-20T19:44:38.705Z,101345.81
2022-10-20T19:47:08.005Z,101345.34
2022-10-20T19:49:38.380Z,101345.38
2022-10-20T19:52:07.665Z,101353.09
2022-10-20T19:54:38.221Z,101343.78
2022-10-20T19:57:09.397Z,101353.56
2022-10-20T19:59:36.879Z,101357.16
2022-10-20T20:02:06.698Z,101361.22
2022-10-20T20:04:34.242Z,101347.00
2022-10-20T20:07:04.789Z,101347.81
2022-10-20T20:09:33.435Z,101343.28
2022-10-20T20:12:01.111Z,101337.66
2022-10-20T20:14:33.982Z,101340.94
2022-10-20T20:17:01.707Z,101345.38
2022-10-20T20:19:31.878Z,101351.44
2022-10-20T20:21:59.411Z,101357.94
2022-10-20T20:24:27.016Z,101357.09
2022-10-20T20:26:55.149Z,101368.41
2022-10-20T20:29:25.025Z,101363.16
2022-10-20T20:31:52.968Z,101359.94
2022-10-20T20:34:20.870Z,101364.81
2022-10-20T20:36:49.298Z,101364.38
2022-10-20T20:39:17.008Z,101364.84
2022-10-20T20:41:44.635Z,101348.59
2022-10-20T20:44:15.570Z,101359.16
2022-10-20T20:46:46.167Z,101369.22
2022-10-20T20:49:14.112Z,101368.78
2022-10-20T20:51:44.094Z,101371.28
2022-10-20T20:54:13.921Z,101370.44
2022-10-20T20:56:43.120Z,101367.97
2022-10-20T20:59:10.649Z,101358.25
2022-10-20T21:01:38.340Z,101363.13
2022-10-20T21:04:10.278Z,101370.84
2022-10-20T21:07:00.706Z,101380.56
2022-10-20T21:09:27.131Z,101376.94
2022-10-20T21:11:54.599Z,101379.81
2022-10-20T21:14:22.879Z,101378.97
2022-10-20T21:16:58.263Z,101378.56
2022-10-20T21:19:25.802Z,101377.41
2022-10-20T21:22:01.263Z,101374.47
2022-10-20T21:24:29.415Z,101370.44
2022-10-20T21:26:57.241Z,101391.47
2022-10-20T21:29:25.237Z,101380.59
2022-10-20T21:31:55.084Z,101376.13
2022-10-20T21:34:22.511Z,101376.50
2022-10-20T21:36:52.273Z,101369.22
2022-10-20T21:39:19.891Z,101360.69
2022-10-20T21:41:49.020Z,101369.59
2022-10-20T21:44:16.874Z,101371.25
2022-10-20T21:46:49.356Z,101368.41
2022-10-20T21:49:19.991Z,101374.47
2022-10-20T21:51:56.473Z,101361.84
2022-10-20T21:54:29.064Z,101362.31
2022-10-20T21:56:57.369Z,101365.94
2022-10-20T21:59:30.203Z,101361.47
2022-10-20T22:02:00.500Z,101352.59
2022-10-20T22:04:29.741Z,101351.38
2022-10-20T22:06:59.467Z,101342.91
2022-10-20T22:09:27.444Z,101345.81
2022-10-20T22:11:56.644Z,101347.91
2022-10-20T22:14:24.439Z,101345.09
2022-10-20T22:16:52.224Z,101339.56
2022-10-20T22:19:22.372Z,101342.38
2022-10-20T22:21:51.739Z,101339.56
2022-10-20T22:24:22.783Z,101335.44
2022-10-20T22:26:53.056Z,101332.59
2022-10-20T22:29:22.445Z,101345.50
2022-10-20T22:31:50.092Z,101340.19
2022-10-20T22:34:17.884Z,101338.94
2022-10-20T22:36:45.571Z,101342.50
2022-10-20T22:39:15.416Z,101340.44
2022-10-20T22:41:42.891Z,101331.47
2022-10-20T22:44:13.193Z,101334.41
2022-10-20T22:46:40.572Z,101333.19
2022-10-20T22:49:08.349Z,101329.13
2022-10-20T22:51:38.251Z,101323.81
2022-10-20T22:54:05.731Z,101327.09
2022-10-20T22:56:33.203Z,101325.47
2022-10-20T22:59:00.581Z,101320.16
2022-10-20T23:01:28.260Z,101319.78
2022-10-20T23:03:55.897Z,101333.50
2022-10-20T23:06:27.923Z,101325.78
2022-10-20T23:08:58.759Z,101325.81
2022-10-20T23:11:29.567Z,101321.81
2022-10-20T23:13:57.025Z,101322.59
2022-10-20T23:16:27.524Z,101322.59
2022-10-20T23:18:55.302Z,101321.34
2022-10-20T23:21:22.932Z,101312.88
2022-10-20T23:23:53.158Z,101301.97
2022-10-20T23:26:23.156Z,101303.16
2022-10-20T23:28:50.860Z,101301.53
2022-10-20T23:31:22.935Z,101297.91
2022-10-20T23:33:55.167Z,101291.84
2022-10-20T23:36:22.936Z,101301.94
2022-10-20T23:38:51.274Z,101303.13
2022-10-20T23:41:21.298Z,101305.97
2022-10-20T23:43:48.756Z,101301.53
2022-10-20T23:46:16.121Z,101303.97
2022-10-20T23:48:48.344Z,101300.31
2022-10-20T23:51:18.154Z,101305.16
2022-10-20T23:53:45.535Z,101316.50
2022-10-20T23:56:13.010Z,101314.47
2022-10-20T23:58:40.478Z,101326.56
